Newton, MA (02461)

8:47 AM EDT on September 02, 2015 (GMT -0400)
Waban MA | | Change Station
CLOSE
Current Station
Personal Weather Station
Location: Waban, MA
Elevation: 142 ft
Nearby Weather Stations

Elev 142 ft 42.33 °N, 71.22 °W | Updated 6 seconds ago

Partly Cloudy
Partly Cloudy
69.2 °F
Feels Like 69.2 °F
N
0.0
Wind Variable Wind from NNW
Gusts 1.0 mph

Today
High -- | Low -- °F
--% Chance of Precip.
Yesterday
High -- | Low -- °F
Precip. -- in
6:10 AM 7:17 PM
Waning Gibbous, 80% visible
Pressure 30.01 in
Visibility 5.0 miles
Clouds Clear
Dew Point 66 °F
Humidity 89%
Rainfall 0.00 in
Snow Depth Not available.
UV 1 out of 12
Pollen 10.40 out of 12
Air Quality Not available.
Flu Activity Not available.
METAR KOWD 021153Z 00000KT 5SM BR CLR 19/18 A3001 RMK AO2 SLP161 T01940183 10194 20128 53001
Pressure 30.01 in
Visibility 5.0 miles
Clouds Clear
Dew Point 66 °F
Humidity 89%
Rainfall 0.00 in
Snow Depth Not available.
UV 1 out of 12
Pollen 10.40 out of 12
Air Quality Not available.
Flu Activity Not available.
METAR KOWD 021153Z 00000KT 5SM BR CLR 19/18 A3001 RMK AO2 SLP161 T01940183 10194 20128 53001

10-Day Weather Forecast

×

Almanac

Astronomy

Sep. 02, 2015 Rise Set
Actual Time
Civil Twilight
Nautical Twilight
Astronomical Twilight
Moon
Length of Visible Light
Length of Day
Tomorrow will be .
, % of the Moon is Illuminated

Today's Extremes

State Highs State Lows

Community

WunderPhotos

Upload Photos

1,851,738 photos uploaded!

WunderBlogs® & News

Nearby

Air Quality

  Air Quality AQ Index Pollutant
Not available.

Snow Depth

Station Depth Elevation

Earthquake Activity

City Distance Mag. Time & Date
Minimum magnitude displayed is 2.5.

Coastal Water Temperatures

Place Temperature

Stations

Nearby Weather Stations

Station Location Temp. Windchill Dew Point Humidity Wind Precip. Elev Updated Type